sensor_id;sensor_type;location;lat;lon;timestamp;pressure;altitude;pressure_sealevel;temperature;humidity
6150;BME280;3106;42.670;23.318;2022-10-13T00:11:19;95142.66;;;10.56;100.00
6150;BME280;3106;42.670;23.318;2022-10-13T00:13:49;95146.94;;;10.57;100.00
6150;BME280;3106;42.670;23.318;2022-10-13T00:16:20;95170.94;;;10.66;100.00
6150;BME280;3106;42.670;23.318;2022-10-13T00:18:51;95140.97;;;10.52;100.00
6150;BME280;3106;42.670;23.318;2022-10-13T00:21:25;95138.31;;;10.52;100.00
6150;BME280;3106;42.670;23.318;2022-10-13T00:27:35;95155.25;;;10.56;100.00
6150;BME280;3106;42.670;23.318;2022-10-13T00:33:52;95126.19;;;10.26;100.00
6150;BME280;3106;42.670;23.318;2022-10-13T00:36:32;95144.69;;;10.39;100.00
6150;BME280;3106;42.670;23.318;2022-10-13T00:39:00;95127.59;;;10.23;100.00
6150;BME280;3106;42.670;23.318;2022-10-13T00:41:45;95139.19;;;10.36;100.00
6150;BME280;3106;42.670;23.318;2022-10-13T00:54:23;95130.81;;;10.37;100.00
6150;BME280;3106;42.670;23.318;2022-10-13T00:57:07;95116.44;;;10.30;100.00
6150;BME280;3106;42.670;23.318;2022-10-13T00:59:43;95109.94;;;10.39;100.00
6150;BME280;3106;42.670;23.318;2022-10-13T01:02:23;95136.75;;;10.51;100.00
6150;BME280;3106;42.670;23.318;2022-10-13T01:05:25;95105.03;;;10.41;100.00
6150;BME280;3106;42.670;23.318;2022-10-13T03:26:59;95100.63;;;9.70;100.00
6150;BME280;3106;42.670;23.318;2022-10-13T03:29:29;95095.97;;;9.59;100.00
6150;BME280;3106;42.670;23.318;2022-10-13T03:32:07;95059.50;;;9.17;100.00
6150;BME280;3106;42.670;23.318;2022-10-13T04:27:39;95088.94;;;9.37;100.00
6150;BME280;3106;42.670;23.318;2022-10-13T04:30:16;95062.00;;;9.13;100.00
6150;BME280;3106;42.670;23.318;2022-10-13T04:32:55;95090.38;;;9.26;100.00
6150;BME280;3106;42.670;23.318;2022-10-13T04:35:26;95067.81;;;9.07;100.00
6150;BME280;3106;42.670;23.318;2022-10-13T04:38:21;95057.94;;;8.91;100.00
6150;BME280;3106;42.670;23.318;2022-10-13T04:48:53;95053.88;;;8.85;100.00
6150;BME280;3106;42.670;23.318;2022-10-13T04:51:22;95080.06;;;8.99;100.00
6150;BME280;3106;42.670;23.318;2022-10-13T04:53:54;95060.47;;;8.87;100.00
6150;BME280;3106;42.670;23.318;2022-10-13T04:56:25;95090.56;;;9.04;100.00
6150;BME280;3106;42.670;23.318;2022-10-13T05:01:41;95096.50;;;9.27;100.00
6150;BME280;3106;42.670;23.318;2022-10-13T05:04:10;95081.91;;;9.24;100.00
6150;BME280;3106;42.670;23.318;2022-10-13T05:06:51;95081.44;;;9.22;100.00
6150;BME280;3106;42.670;23.318;2022-10-13T05:09:31;95070.16;;;9.08;100.00
6150;BME280;3106;42.670;23.318;2022-10-13T05:11:58;95067.34;;;9.13;100.00
6150;BME280;3106;42.670;23.318;2022-10-13T05:14:25;95099.00;;;9.32;100.00
6150;BME280;3106;42.670;23.318;2022-10-13T05:16:52;95091.47;;;9.34;100.00
6150;BME280;3106;42.670;23.318;2022-10-13T05:19:21;95122.31;;;9.60;100.00
6150;BME280;3106;42.670;23.318;2022-10-13T05:21:49;95099.75;;;9.49;100.00
6150;BME280;3106;42.670;23.318;2022-10-13T05:24:16;95124.53;;;9.58;100.00
6150;BME280;3106;42.670;23.318;2022-10-13T05:26:45;95129.66;;;9.72;100.00
6150;BME280;3106;42.670;23.318;2022-10-13T05:29:14;95136.06;;;9.88;100.00
6150;BME280;3106;42.670;23.318;2022-10-13T05:31:42;95105.03;;;9.66;100.00
6150;BME280;3106;42.670;23.318;2022-10-13T05:34:09;95118.50;;;9.78;100.00
6150;BME280;3106;42.670;23.318;2022-10-13T05:36:38;95125.06;;;9.81;100.00
6150;BME280;3106;42.670;23.318;2022-10-13T05:39:05;95109.41;;;9.71;100.00
6150;BME280;3106;42.670;23.318;2022-10-13T05:41:38;95108.59;;;9.79;100.00
6150;BME280;3106;42.670;23.318;2022-10-13T05:44:07;95154.41;;;10.06;100.00
6150;BME280;3106;42.670;23.318;2022-10-13T05:46:48;95157.38;;;10.13;100.00
6150;BME280;3106;42.670;23.318;2022-10-13T05:49:24;95129.91;;;10.04;100.00
6150;BME280;3106;42.670;23.318;2022-10-13T05:51:55;95130.50;;;10.10;100.00
6150;BME280;3106;42.670;23.318;2022-10-13T05:54:27;95136.69;;;10.31;100.00
6150;BME280;3106;42.670;23.318;2022-10-13T05:56:59;95157.84;;;10.44;100.00
6150;BME280;3106;42.670;23.318;2022-10-13T05:59:31;95154.16;;;10.57;100.00
6150;BME280;3106;42.670;23.318;2022-10-13T06:02:00;95182.03;;;10.76;100.00
6150;BME280;3106;42.670;23.318;2022-10-13T06:04:33;95182.06;;;10.97;100.00
6150;BME280;3106;42.670;23.318;2022-10-13T06:07:04;95164.28;;;10.92;100.00
6150;BME280;3106;42.670;23.318;2022-10-13T06:09:32;95168.47;;;11.02;100.00
6150;BME280;3106;42.670;23.318;2022-10-13T06:12:02;95151.97;;;11.00;100.00
6150;BME280;3106;42.670;23.318;2022-10-13T06:14:29;95160.78;;;11.21;100.00
6150;BME280;3106;42.670;23.318;2022-10-13T06:16:58;95155.25;;;11.26;100.00
6150;BME280;3106;42.670;23.318;2022-10-13T06:19:25;95138.06;;;11.27;100.00
6150;BME280;3106;42.670;23.318;2022-10-13T06:21:53;95126.69;;;11.30;100.00
6150;BME280;3106;42.670;23.318;2022-10-13T06:24:21;95139.06;;;11.55;100.00
6150;BME280;3106;42.670;23.318;2022-10-13T06:26:48;95159.72;;;11.87;100.00
6150;BME280;3106;42.670;23.318;2022-10-13T06:29:15;95156.03;;;11.91;100.00
6150;BME280;3106;42.670;23.318;2022-10-13T06:31:43;95151.78;;;11.90;100.00
6150;BME280;3106;42.670;23.318;2022-10-13T06:34:10;95147.91;;;12.00;100.00
6150;BME280;3106;42.670;23.318;2022-10-13T06:36:37;95122.91;;;11.96;100.00
6150;BME280;3106;42.670;23.318;2022-10-13T06:39:05;95149.25;;;12.17;100.00
6150;BME280;3106;42.670;23.318;2022-10-13T06:41:33;95133.22;;;12.29;100.00
6150;BME280;3106;42.670;23.318;2022-10-13T06:44:01;95147.28;;;12.62;100.00
6150;BME280;3106;42.670;23.318;2022-10-13T06:46:28;95143.94;;;12.65;99.83
6150;BME280;3106;42.670;23.318;2022-10-13T06:48:57;95150.38;;;12.76;99.39
6150;BME280;3106;42.670;23.318;2022-10-13T06:51:24;95150.38;;;12.88;99.44
6150;BME280;3106;42.670;23.318;2022-10-13T06:53:51;95142.22;;;12.85;98.62
6150;BME280;3106;42.670;23.318;2022-10-13T06:56:18;95127.38;;;12.75;98.81
6150;BME280;3106;42.670;23.318;2022-10-13T06:58:49;95130.03;;;12.99;98.15
6150;BME280;3106;42.670;23.318;2022-10-13T07:01:16;95147.09;;;13.19;97.76
6150;BME280;3106;42.670;23.318;2022-10-13T07:03:43;95149.88;;;13.22;98.08
6150;BME280;3106;42.670;23.318;2022-10-13T07:06:10;95130.19;;;13.18;96.92
6150;BME280;3106;42.670;23.318;2022-10-13T07:08:37;95128.06;;;13.12;97.48
6150;BME280;3106;42.670;23.318;2022-10-13T07:11:06;95137.22;;;12.95;97.63
6150;BME280;3106;42.670;23.318;2022-10-13T07:13:34;95122.22;;;12.94;98.03
6150;BME280;3106;42.670;23.318;2022-10-13T07:16:05;95136.50;;;13.10;98.20
6150;BME280;3106;42.670;23.318;2022-10-13T07:18:35;95101.97;;;13.24;97.58
6150;BME280;3106;42.670;23.318;2022-10-13T07:21:03;95130.50;;;13.29;96.81
6150;BME280;3106;42.670;23.318;2022-10-13T07:23:33;95148.75;;;13.23;97.89
6150;BME280;3106;42.670;23.318;2022-10-13T07:26:00;95115.47;;;12.88;98.62
6150;BME280;3106;42.670;23.318;2022-10-13T07:28:30;95109.44;;;12.91;98.67
6150;BME280;3106;42.670;23.318;2022-10-13T07:31:08;95135.09;;;12.77;99.15
6150;BME280;3106;42.670;23.318;2022-10-13T07:33:36;95158.44;;;13.00;99.98
6150;BME280;3106;42.670;23.318;2022-10-13T07:36:06;95126.00;;;13.05;99.35
6150;BME280;3106;42.670;23.318;2022-10-13T07:38:34;95124.38;;;13.44;98.24
6150;BME280;3106;42.670;23.318;2022-10-13T07:41:02;95149.44;;;13.75;96.75
6150;BME280;3106;42.670;23.318;2022-10-13T07:43:30;95124.94;;;13.49;95.76
6150;BME280;3106;42.670;23.318;2022-10-13T07:45:58;95121.84;;;13.62;96.37
6150;BME280;3106;42.670;23.318;2022-10-13T07:48:27;95131.75;;;13.74;96.39
6150;BME280;3106;42.670;23.318;2022-10-13T07:50:54;95112.84;;;13.70;95.95
6150;BME280;3106;42.670;23.318;2022-10-13T07:53:22;95128.91;;;13.67;96.12
6150;BME280;3106;42.670;23.318;2022-10-13T07:55:49;95148.22;;;13.72;96.34
6150;BME280;3106;42.670;23.318;2022-10-13T07:58:16;95141.47;;;13.78;96.00
6150;BME280;3106;42.670;23.318;2022-10-13T08:00:43;95144.88;;;13.91;96.04
6150;BME280;3106;42.670;23.318;2022-10-13T08:03:19;95097.31;;;13.64;95.85
6150;BME280;3106;42.670;23.318;2022-10-13T08:05:48;95115.56;;;13.86;95.71
6150;BME280;3106;42.670;23.318;2022-10-13T08:08:15;95098.56;;;13.82;95.36
6150;BME280;3106;42.670;23.318;2022-10-13T08:10:43;95102.72;;;13.79;95.35
6150;BME280;3106;42.670;23.318;2022-10-13T08:13:10;95115.38;;;13.79;95.82
6150;BME280;3106;42.670;23.318;2022-10-13T08:15:39;95132.72;;;13.97;95.54
6150;BME280;3106;42.670;23.318;2022-10-13T08:18:07;95100.31;;;13.90;94.88
6150;BME280;3106;42.670;23.318;2022-10-13T08:20:40;95101.34;;;14.01;94.79
6150;BME280;3106;42.670;23.318;2022-10-13T08:23:09;95121.84;;;14.52;93.73
6150;BME280;3106;42.670;23.318;2022-10-13T08:25:36;95121.16;;;14.55;92.96
6150;BME280;3106;42.670;23.318;2022-10-13T08:28:05;95118.03;;;14.53;92.81
6150;BME280;3106;42.670;23.318;2022-10-13T08:30:32;95116.97;;;14.57;92.38
6150;BME280;3106;42.670;23.318;2022-10-13T08:32:59;95104.31;;;14.58;92.56
6150;BME280;3106;42.670;23.318;2022-10-13T08:35:27;95099.16;;;14.68;92.44
6150;BME280;3106;42.670;23.318;2022-10-13T08:37:59;95093.31;;;14.82;91.68
6150;BME280;3106;42.670;23.318;2022-10-13T08:40:45;95118.09;;;15.25;90.43
6150;BME280;3106;42.670;23.318;2022-10-13T08:43:15;95106.56;;;15.43;89.19
6150;BME280;3106;42.670;23.318;2022-10-13T08:45:44;95085.22;;;15.54;88.11
6150;BME280;3106;42.670;23.318;2022-10-13T08:48:14;95090.38;;;15.62;87.67
6150;BME280;3106;42.670;23.318;2022-10-13T08:50:45;95091.78;;;15.75;86.76
6150;BME280;3106;42.670;23.318;2022-10-13T08:53:18;95076.84;;;15.81;86.26
6150;BME280;3106;42.670;23.318;2022-10-13T08:55:53;95096.72;;;16.15;85.31
6150;BME280;3106;42.670;23.318;2022-10-13T08:58:23;95094.78;;;16.15;84.31
6150;BME280;3106;42.670;23.318;2022-10-13T09:00:59;95086.59;;;16.08;84.27
6150;BME280;3106;42.670;23.318;2022-10-13T09:03:37;95092.47;;;16.36;83.72
6150;BME280;3106;42.670;23.318;2022-10-13T09:06:13;95100.13;;;16.57;83.31
6150;BME280;3106;42.670;23.318;2022-10-13T09:08:50;95093.66;;;16.61;82.35
6150;BME280;3106;42.670;23.318;2022-10-13T09:11:21;95095.50;;;16.83;81.44
6150;BME280;3106;42.670;23.318;2022-10-13T09:13:53;95070.78;;;16.81;80.74
6150;BME280;3106;42.670;23.318;2022-10-13T09:16:34;95073.81;;;17.05;79.66
6150;BME280;3106;42.670;23.318;2022-10-13T09:19:19;95100.25;;;17.48;79.03
6150;BME280;3106;42.670;23.318;2022-10-13T09:21:47;95093.94;;;17.70;77.93
6150;BME280;3106;42.670;23.318;2022-10-13T09:24:19;95061.16;;;17.75;77.01
6150;BME280;3106;42.670;23.318;2022-10-13T09:26:50;95066.78;;;17.96;76.19
6150;BME280;3106;42.670;23.318;2022-10-13T09:29:28;95039.00;;;17.63;76.59
6150;BME280;3106;42.670;23.318;2022-10-13T09:32:09;95076.63;;;18.15;75.93
6150;BME280;3106;42.670;23.318;2022-10-13T09:34:39;95044.50;;;18.10;74.80
6150;BME280;3106;42.670;23.318;2022-10-13T09:37:18;95029.66;;;17.97;74.33
6150;BME280;3106;42.670;23.318;2022-10-13T09:40:18;95036.78;;;18.15;74.14
6150;BME280;3106;42.670;23.318;2022-10-13T09:43:17;95046.53;;;17.83;75.15
6150;BME280;3106;42.670;23.318;2022-10-13T09:45:46;95032.97;;;17.76;75.63
6150;BME280;3106;42.670;23.318;2022-10-13T09:48:19;95033.50;;;17.52;76.39
6150;BME280;3106;42.670;23.318;2022-10-13T09:50:48;95027.94;;;17.78;75.50
6150;BME280;3106;42.670;23.318;2022-10-13T09:53:27;95051.34;;;18.00;76.02
6150;BME280;3106;42.670;23.318;2022-10-13T09:56:20;95059.94;;;18.06;75.45
6150;BME280;3106;42.670;23.318;2022-10-13T09:59:11;95043.03;;;18.23;75.04
6150;BME280;3106;42.670;23.318;2022-10-13T10:01:43;95040.19;;;18.52;73.96
6150;BME280;3106;42.670;23.318;2022-10-13T10:04:17;95048.16;;;18.85;72.65
6150;BME280;3106;42.670;23.318;2022-10-13T10:06:49;95028.38;;;18.77;72.31
6150;BME280;3106;42.670;23.318;2022-10-13T10:09:36;95035.88;;;19.08;70.71
6150;BME280;3106;42.670;23.318;2022-10-13T10:12:05;95022.28;;;18.94;70.44
6150;BME280;3106;42.670;23.318;2022-10-13T10:14:36;95006.03;;;19.01;70.58
6150;BME280;3106;42.670;23.318;2022-10-13T10:17:10;95018.97;;;19.25;70.11
6150;BME280;3106;42.670;23.318;2022-10-13T10:19:47;95020.91;;;19.28;68.06
6150;BME280;3106;42.670;23.318;2022-10-13T10:22:24;95023.69;;;19.46;66.69
6150;BME280;3106;42.670;23.318;2022-10-13T10:25:04;94994.94;;;19.31;67.81
6150;BME280;3106;42.670;23.318;2022-10-13T10:27:37;95001.88;;;19.14;67.52
6150;BME280;3106;42.670;23.318;2022-10-13T10:30:13;94998.88;;;19.44;66.12
6150;BME280;3106;42.670;23.318;2022-10-13T10:33:02;94997.75;;;19.62;66.96
6150;BME280;3106;42.670;23.318;2022-10-13T10:35:37;95000.50;;;19.80;67.38
6150;BME280;3106;42.670;23.318;2022-10-13T10:38:19;94984.22;;;19.86;66.20
6150;BME280;3106;42.670;23.318;2022-10-13T10:40:55;94976.47;;;19.85;64.93
6150;BME280;3106;42.670;23.318;2022-10-13T10:43:45;94994.31;;;19.93;65.43
6150;BME280;3106;42.670;23.318;2022-10-13T10:46:18;94980.78;;;20.10;64.89
6150;BME280;3106;42.670;23.318;2022-10-13T10:48:49;94968.38;;;20.06;64.16
6150;BME280;3106;42.670;23.318;2022-10-13T10:51:22;94983.13;;;20.26;63.86
6150;BME280;3106;42.670;23.318;2022-10-13T10:53:56;94985.41;;;20.45;63.61
6150;BME280;3106;42.670;23.318;2022-10-13T10:56:31;94959.00;;;20.49;62.01
6150;BME280;3106;42.670;23.318;2022-10-13T10:59:18;94962.16;;;20.37;62.43
6150;BME280;3106;42.670;23.318;2022-10-13T11:01:57;94971.84;;;20.41;62.37
6150;BME280;3106;42.670;23.318;2022-10-13T11:04:43;94979.19;;;20.51;62.50
6150;BME280;3106;42.670;23.318;2022-10-13T11:07:13;94945.84;;;20.44;62.42
6150;BME280;3106;42.670;23.318;2022-10-13T11:13:15;94946.13;;;20.88;61.66
6150;BME280;3106;42.670;23.318;2022-10-13T11:15:57;94952.38;;;20.71;60.45
6150;BME280;3106;42.670;23.318;2022-10-13T11:22:26;94937.41;;;21.28;59.54
6150;BME280;3106;42.670;23.318;2022-10-13T11:27:58;94916.94;;;21.06;58.44
6150;BME280;3106;42.670;23.318;2022-10-13T11:30:43;94938.97;;;21.25;57.98
6150;BME280;3106;42.670;23.318;2022-10-13T11:36:45;94909.88;;;21.19;57.36
6150;BME280;3106;42.670;23.318;2022-10-13T11:39:45;94923.47;;;21.19;58.00
6150;BME280;3106;42.670;23.318;2022-10-13T11:42:49;94898.19;;;21.22;56.89
6150;BME280;3106;42.670;23.318;2022-10-13T11:45:31;94906.72;;;21.27;57.01
6150;BME280;3106;42.670;23.318;2022-10-13T11:48:23;94877.38;;;20.98;57.13
6150;BME280;3106;42.670;23.318;2022-10-13T11:51:06;94897.91;;;21.06;58.15
6150;BME280;3106;42.670;23.318;2022-10-13T11:53:41;94901.41;;;21.03;58.10
6150;BME280;3106;42.670;23.318;2022-10-13T11:56:20;94906.19;;;20.71;59.15
6150;BME280;3106;42.670;23.318;2022-10-13T11:58:49;94857.78;;;20.27;59.67
6150;BME280;3106;42.670;23.318;2022-10-13T12:01:16;94887.97;;;20.57;58.79
6150;BME280;3106;42.670;23.318;2022-10-13T12:03:45;94882.97;;;20.45;59.15
6150;BME280;3106;42.670;23.318;2022-10-13T12:06:30;94905.88;;;20.30;60.52
6150;BME280;3106;42.670;23.318;2022-10-13T12:09:04;94879.16;;;20.08;61.35
6150;BME280;3106;42.670;23.318;2022-10-13T12:11:36;94894.22;;;20.40;60.70
6150;BME280;3106;42.670;23.318;2022-10-13T12:14:06;94890.66;;;20.68;60.25
6150;BME280;3106;42.670;23.318;2022-10-13T12:16:34;94891.75;;;20.88;59.20
6150;BME280;3106;42.670;23.318;2022-10-13T12:19:18;94873.47;;;20.95;58.08
6150;BME280;3106;42.670;23.318;2022-10-13T12:21:50;94876.09;;;21.13;56.65
6150;BME280;3106;42.670;23.318;2022-10-13T12:24:17;94860.97;;;21.08;55.77
6150;BME280;3106;42.670;23.318;2022-10-13T12:26:49;94880.97;;;21.42;55.83
6150;BME280;3106;42.670;23.318;2022-10-13T12:29:17;94890.81;;;21.80;53.81
6150;BME280;3106;42.670;23.318;2022-10-13T12:31:46;94887.44;;;21.65;52.81
6150;BME280;3106;42.670;23.318;2022-10-13T12:34:20;94883.47;;;21.77;53.49
6150;BME280;3106;42.670;23.318;2022-10-13T12:36:54;94891.13;;;21.92;51.92
6150;BME280;3106;42.670;23.318;2022-10-13T12:39:22;94866.22;;;21.94;51.95
6150;BME280;3106;42.670;23.318;2022-10-13T12:41:52;94882.75;;;22.13;51.55
6150;BME280;3106;42.670;23.318;2022-10-13T12:44:23;94858.72;;;22.05;51.20
6150;BME280;3106;42.670;23.318;2022-10-13T12:46:52;94859.22;;;22.37;49.87
6150;BME280;3106;42.670;23.318;2022-10-13T12:49:22;94842.59;;;22.21;49.54
6150;BME280;3106;42.670;23.318;2022-10-13T12:51:52;94839.56;;;22.52;48.89
6150;BME280;3106;42.670;23.318;2022-10-13T12:54:23;94852.56;;;22.71;48.67
6150;BME280;3106;42.670;23.318;2022-10-13T12:56:55;94866.47;;;22.50;48.87
6150;BME280;3106;42.670;23.318;2022-10-13T12:59:24;94866.97;;;22.38;49.13
6150;BME280;3106;42.670;23.318;2022-10-13T13:01:54;94863.66;;;22.17;48.87
6150;BME280;3106;42.670;23.318;2022-10-13T13:04:37;94840.47;;;21.98;49.34
6150;BME280;3106;42.670;23.318;2022-10-13T13:07:28;94844.44;;;21.94;49.78
6150;BME280;3106;42.670;23.318;2022-10-13T13:10:08;94845.34;;;21.77;50.51
6150;BME280;3106;42.670;23.318;2022-10-13T13:12:41;94814.50;;;21.43;51.21
6150;BME280;3106;42.670;23.318;2022-10-13T13:15:26;94835.75;;;21.58;51.58
6150;BME280;3106;42.670;23.318;2022-10-13T13:18:29;94811.91;;;21.26;52.54
6150;BME280;3106;42.670;23.318;2022-10-13T13:21:00;94842.03;;;20.98;54.05
6150;BME280;3106;42.670;23.318;2022-10-13T13:23:29;94837.81;;;20.72;55.19
6150;BME280;3106;42.670;23.318;2022-10-13T13:26:01;94844.38;;;20.89;54.52
6150;BME280;3106;42.670;23.318;2022-10-13T13:28:31;94845.66;;;20.60;55.66
6150;BME280;3106;42.670;23.318;2022-10-13T13:30:59;94832.94;;;20.36;57.33
6150;BME280;3106;42.670;23.318;2022-10-13T13:33:26;94845.34;;;20.33;57.29
6150;BME280;3106;42.670;23.318;2022-10-13T13:35:53;94839.56;;;20.28;56.86
6150;BME280;3106;42.670;23.318;2022-10-13T13:38:21;94842.59;;;20.44;57.64
6150;BME280;3106;42.670;23.318;2022-10-13T13:40:49;94838.25;;;20.67;57.55
6150;BME280;3106;42.670;23.318;2022-10-13T13:43:19;94844.38;;;20.82;56.61
6150;BME280;3106;42.670;23.318;2022-10-13T13:45:47;94811.06;;;20.71;55.13
6150;BME280;3106;42.670;23.318;2022-10-13T13:48:15;94841.22;;;20.97;54.63
6150;BME280;3106;42.670;23.318;2022-10-13T13:50:42;94799.44;;;20.67;54.57
6150;BME280;3106;42.670;23.318;2022-10-13T13:53:09;94835.47;;;20.81;54.85
6150;BME280;3106;42.670;23.318;2022-10-13T13:55:36;94809.19;;;20.61;55.57
6150;BME280;3106;42.670;23.318;2022-10-13T13:58:03;94811.59;;;20.41;56.08
6150;BME280;3106;42.670;23.318;2022-10-13T14:00:31;94833.25;;;20.55;56.81
6150;BME280;3106;42.670;23.318;2022-10-13T14:03:00;94803.44;;;20.41;56.73
6150;BME280;3106;42.670;23.318;2022-10-13T14:05:27;94831.69;;;20.58;57.14
6150;BME280;3106;42.670;23.318;2022-10-13T14:07:56;94828.22;;;20.54;56.80
6150;BME280;3106;42.670;23.318;2022-10-13T14:10:24;94831.31;;;20.56;56.81
6150;BME280;3106;42.670;23.318;2022-10-13T14:13:05;94821.28;;;20.42;56.40
6150;BME280;3106;42.670;23.318;2022-10-13T14:15:33;94789.56;;;20.18;57.06
6150;BME280;3106;42.670;23.318;2022-10-13T14:18:02;94821.34;;;20.25;57.45
6150;BME280;3106;42.670;23.318;2022-10-13T14:20:31;94805.09;;;20.14;57.70
6150;BME280;3106;42.670;23.318;2022-10-13T14:22:59;94794.25;;;20.04;57.69
6150;BME280;3106;42.670;23.318;2022-10-13T14:25:26;94795.78;;;19.94;58.10
6150;BME280;3106;42.670;23.318;2022-10-13T14:27:58;94826.81;;;20.14;58.82
6150;BME280;3106;42.670;23.318;2022-10-13T14:30:26;94788.03;;;19.86;58.87
6150;BME280;3106;42.670;23.318;2022-10-13T14:32:57;94815.56;;;19.98;59.07
6150;BME280;3106;42.670;23.318;2022-10-13T14:35:26;94830.69;;;19.92;59.67
6150;BME280;3106;42.670;23.318;2022-10-13T14:37:53;94811.72;;;19.79;60.08
6150;BME280;3106;42.670;23.318;2022-10-13T14:40:20;94815.22;;;19.72;61.22
6150;BME280;3106;42.670;23.318;2022-10-13T14:42:47;94815.25;;;19.69;61.67
6150;BME280;3106;42.670;23.318;2022-10-13T14:45:15;94816.00;;;19.62;62.53
6150;BME280;3106;42.670;23.318;2022-10-13T14:47:42;94822.22;;;19.59;63.27
6150;BME280;3106;42.670;23.318;2022-10-13T14:50:09;94815.63;;;19.46;61.77
6150;BME280;3106;42.670;23.318;2022-10-13T14:52:38;94817.56;;;19.42;61.89
6150;BME280;3106;42.670;23.318;2022-10-13T14:55:05;94816.00;;;19.45;60.97
6150;BME280;3106;42.670;23.318;2022-10-13T14:57:32;94799.34;;;19.25;61.17
6150;BME280;3106;42.670;23.318;2022-10-13T15:00:00;94820.66;;;19.37;60.48
6150;BME280;3106;42.670;23.318;2022-10-13T15:02:27;94809.81;;;19.20;61.73
6150;BME280;3106;42.670;23.318;2022-10-13T15:04:56;94824.47;;;19.05;65.52
6150;BME280;3106;42.670;23.318;2022-10-13T15:07:23;94789.56;;;18.65;66.95
6150;BME280;3106;42.670;23.318;2022-10-13T15:09:52;94812.00;;;18.72;68.75
6150;BME280;3106;42.670;23.318;2022-10-13T15:12:19;94785.22;;;18.36;70.08
6150;BME280;3106;42.670;23.318;2022-10-13T17:15:58;94821.28;;;16.92;79.47
6150;BME280;3106;42.670;23.318;2022-10-13T17:18:26;94811.63;;;16.91;79.57
6150;BME280;3106;42.670;23.318;2022-10-13T17:20:55;94790.94;;;16.66;80.29
6150;BME280;3106;42.670;23.318;2022-10-13T17:23:23;94809.03;;;16.62;81.81
6150;BME280;3106;42.670;23.318;2022-10-13T17:25:50;94828.75;;;16.69;81.30
6150;BME280;3106;42.670;23.318;2022-10-13T17:28:18;94814.03;;;16.60;82.66
6150;BME280;3106;42.670;23.318;2022-10-13T17:30:55;94810.19;;;16.61;83.03
6150;BME280;3106;42.670;23.318;2022-10-13T17:33:24;94802.69;;;16.48;84.03
6150;BME280;3106;42.670;23.318;2022-10-13T17:35:50;94799.94;;;16.41;83.95
6150;BME280;3106;42.670;23.318;2022-10-13T17:38:18;94825.50;;;16.54;83.35
6150;BME280;3106;42.670;23.318;2022-10-13T17:40:45;94822.34;;;16.48;82.59
6150;BME280;3106;42.670;23.318;2022-10-13T17:43:12;94803.25;;;16.31;81.60
6150;BME280;3106;42.670;23.318;2022-10-13T17:45:39;94827.69;;;16.41;81.80
6150;BME280;3106;42.670;23.318;2022-10-13T17:48:06;94805.44;;;16.22;81.85
6150;BME280;3106;42.670;23.318;2022-10-13T17:50:34;94792.16;;;16.06;81.91
6150;BME280;3106;42.670;23.318;2022-10-13T17:53:02;94835.63;;;16.31;82.21
6150;BME280;3106;42.670;23.318;2022-10-13T17:55:29;94816.84;;;16.08;82.71
6150;BME280;3106;42.670;23.318;2022-10-13T17:57:57;94805.97;;;16.01;83.00
6150;BME280;3106;42.670;23.318;2022-10-13T18:00:24;94835.38;;;16.10;82.91
6150;BME280;3106;42.670;23.318;2022-10-13T18:02:51;94805.47;;;15.92;82.58
6150;BME280;3106;42.670;23.318;2022-10-13T18:05:17;94817.50;;;15.98;82.70
6150;BME280;3106;42.670;23.318;2022-10-13T18:07:46;94816.25;;;15.92;81.92
6150;BME280;3106;42.670;23.318;2022-10-13T18:10:13;94799.84;;;15.75;82.34
6150;BME280;3106;42.670;23.318;2022-10-13T18:12:42;94823.41;;;15.81;82.33
6150;BME280;3106;42.670;23.318;2022-10-13T18:15:09;94803.56;;;15.67;81.95
6150;BME280;3106;42.670;23.318;2022-10-13T18:17:36;94829.22;;;15.83;81.86
6150;BME280;3106;42.670;23.318;2022-10-13T18:20:06;94819.78;;;15.70;81.51
6150;BME280;3106;42.670;23.318;2022-10-13T18:22:32;94831.06;;;15.79;81.34
6150;BME280;3106;42.670;23.318;2022-10-13T18:25:02;94833.75;;;15.76;81.74
6150;BME280;3106;42.670;23.318;2022-10-13T18:27:29;94805.34;;;15.56;81.43
6150;BME280;3106;42.670;23.318;2022-10-13T18:29:56;94803.00;;;15.54;81.34
6150;BME280;3106;42.670;23.318;2022-10-13T18:32:24;94823.56;;;15.66;81.36
6150;BME280;3106;42.670;23.318;2022-10-13T18:34:57;94839.38;;;15.67;81.57
6150;BME280;3106;42.670;23.318;2022-10-13T18:37:29;94856.81;;;15.73;81.68
6150;BME280;3106;42.670;23.318;2022-10-13T18:39:56;94821.81;;;15.51;81.23
6150;BME280;3106;42.670;23.318;2022-10-13T21:02:12;94814.28;;;14.48;83.83
6150;BME280;3106;42.670;23.318;2022-10-13T21:04:41;94807.56;;;14.38;83.89
6150;BME280;3106;42.670;23.318;2022-10-13T21:07:07;94790.56;;;14.34;83.77
6150;BME280;3106;42.670;23.318;2022-10-13T21:09:35;94770.28;;;14.18;83.85
6150;BME280;3106;42.670;23.318;2022-10-13T21:12:02;94815.31;;;14.43;83.85
